createdAt,value
2019-01-19T00:02:27.164Z,89.00
2019-01-19T00:05:10.622Z,88.30
2019-01-19T00:08:00.988Z,88.84
2019-01-19T00:10:48.797Z,88.68
2019-01-19T00:13:35.329Z,88.43
2019-01-19T00:16:13.180Z,89.14
2019-01-19T00:18:53.408Z,88.66
2019-01-19T00:21:32.864Z,89.38
2019-01-19T00:24:33.604Z,88.20
2019-01-19T00:27:29.892Z,88.60
2019-01-19T00:30:31.198Z,88.87
2019-01-19T00:33:28.500Z,89.64
2019-01-19T00:36:07.004Z,89.85
2019-01-19T00:39:08.085Z,89.72
2019-01-19T00:41:46.344Z,89.90
2019-01-19T00:44:42.876Z,90.05
2019-01-19T00:47:50.504Z,89.19
2019-01-19T00:51:00.248Z,89.48
2019-01-19T00:53:36.045Z,89.87
2019-01-19T00:56:24.340Z,88.90
2019-01-19T00:58:59.386Z,88.67
2019-01-19T01:01:54.739Z,89.80
2019-01-19T01:04:33.337Z,88.73
2019-01-19T01:07:29.027Z,88.87
2019-01-19T01:10:02.699Z,89.57
2019-01-19T01:12:53.645Z,88.97
2019-01-19T01:15:52.200Z,87.76
2019-01-19T01:18:38.226Z,88.60
2019-01-19T01:21:45.993Z,88.55
2019-01-19T01:24:27.749Z,88.01
2019-01-19T01:27:17.800Z,89.80
2019-01-19T01:29:59.691Z,89.40
2019-01-19T01:32:35.693Z,89.36
2019-01-19T01:35:21.320Z,90.36
2019-01-19T01:37:59.676Z,91.05
2019-01-19T01:40:39.260Z,90.77
2019-01-19T01:43:40.345Z,91.25
2019-01-19T01:46:17.503Z,91.85
2019-01-19T01:49:08.436Z,91.92
2019-01-19T01:52:12.680Z,92.18
2019-01-19T01:54:49.632Z,91.65
2019-01-19T01:57:25.991Z,90.63
2019-01-19T02:00:18.149Z,91.42
2019-01-19T02:03:01.383Z,91.38
2019-01-19T02:05:40.304Z,91.30
2019-01-19T02:08:30.048Z,92.04
2019-01-19T02:11:23.000Z,91.35
2019-01-19T02:14:11.999Z,91.10
2019-01-19T02:17:05.056Z,92.13
2019-01-19T02:19:43.514Z,90.93
2019-01-19T02:22:18.720Z,92.11
2019-01-19T02:25:13.720Z,92.08
2019-01-19T02:28:23.480Z,91.95
2019-01-19T02:31:15.654Z,90.94
2019-01-19T02:33:58.488Z,91.42
2019-01-19T02:36:56.347Z,91.42
2019-01-19T02:39:36.117Z,90.95
2019-01-19T02:42:30.338Z,91.45
2019-01-19T02:45:44.740Z,90.83
2019-01-19T02:48:33.816Z,90.88
2019-01-19T02:51:10.533Z,91.01
2019-01-19T02:53:50.312Z,91.89
2019-01-19T02:56:26.368Z,91.12
2019-01-19T02:59:28.449Z,91.59
2019-01-19T03:02:13.723Z,92.11
2019-01-19T03:04:52.965Z,91.01
2019-01-19T03:07:46.120Z,91.17
2019-01-19T03:10:31.110Z,92.13
2019-01-19T03:13:09.388Z,92.09
2019-01-19T03:16:01.739Z,92.03
2019-01-19T03:18:37.253Z,91.24
2019-01-19T03:21:43.235Z,91.63
2019-01-19T03:24:37.984Z,91.69
2019-01-19T03:27:35.690Z,91.51
2019-01-19T03:30:16.113Z,91.50
2019-01-19T03:33:02.716Z,92.38
2019-01-19T03:36:04.057Z,92.45
2019-01-19T03:38:49.705Z,92.19
2019-01-19T03:41:39.373Z,91.93
2019-01-19T03:44:15.967Z,91.94
2019-01-19T03:47:07.831Z,91.79
2019-01-19T03:50:03.226Z,91.80
2019-01-19T03:52:44.267Z,92.33
2019-01-19T03:55:41.624Z,92.25
2019-01-19T03:58:18.194Z,92.44
2019-01-19T04:01:05.039Z,92.13
2019-01-19T04:03:49.249Z,91.41
2019-01-19T04:06:39.953Z,92.13
2019-01-19T04:09:23.784Z,92.02
2019-01-19T04:12:05.444Z,91.43
2019-01-19T04:14:50.817Z,91.78
2019-01-19T04:17:29.240Z,91.32
2019-01-19T04:20:29.973Z,91.38
2019-01-19T04:23:00.640Z,91.77
2019-01-19T04:25:36.056Z,91.08
2019-01-19T04:28:02.940Z,90.60
2019-01-19T04:30:29.701Z,91.10
2019-01-19T04:32:56.497Z,91.05
2019-01-19T04:35:23.237Z,91.25
2019-01-19T04:37:49.980Z,91.61
2019-01-19T04:40:16.737Z,93.08
2019-01-19T04:42:44.764Z,92.39
2019-01-19T04:45:11.557Z,92.35
2019-01-19T04:47:38.321Z,92.56
2019-01-19T04:50:05.913Z,91.32
2019-01-19T04:52:32.665Z,91.69
2019-01-19T04:54:59.428Z,92.57
2019-01-19T04:57:26.176Z,91.73
2019-01-19T04:59:52.921Z,92.01
2019-01-19T05:02:19.677Z,92.62
2019-01-19T05:04:46.446Z,91.83
2019-01-19T05:07:13.193Z,91.55
2019-01-19T05:09:39.938Z,91.69
2019-01-19T05:12:06.696Z,92.39
2019-01-19T05:14:33.416Z,91.91
2019-01-19T05:17:00.190Z,92.35
2019-01-19T05:19:26.929Z,91.93
2019-01-19T05:21:53.699Z,91.97
2019-01-19T05:24:20.437Z,92.57
2019-01-19T05:26:47.200Z,92.89
2019-01-19T05:29:14.036Z,92.08
2019-01-19T05:31:40.796Z,92.91
2019-01-19T05:34:07.581Z,92.78
2019-01-19T05:36:38.409Z,92.21
2019-01-19T05:39:01.082Z,91.91
2019-01-19T05:41:27.832Z,92.20
2019-01-19T05:43:54.576Z,92.96
2019-01-19T05:46:21.725Z,92.41
2019-01-19T05:48:48.056Z,92.40
2019-01-19T05:51:14.796Z,92.45
2019-01-19T05:53:41.538Z,92.74
2019-01-19T05:56:08.296Z,92.23
2019-01-19T05:58:35.052Z,92.04
2019-01-19T06:01:01.807Z,92.23
2019-01-19T06:03:28.572Z,93.15
2019-01-19T06:05:55.312Z,92.26
2019-01-19T06:08:22.069Z,92.73
2019-01-19T06:10:48.815Z,92.23
2019-01-19T06:13:15.568Z,91.18
2019-01-19T06:15:42.302Z,91.05
2019-01-19T06:18:09.105Z,91.86
2019-01-19T06:20:35.817Z,91.94
2019-01-19T06:23:02.576Z,90.98
2019-01-19T06:25:29.317Z,91.41
2019-01-19T06:27:56.072Z,91.26
2019-01-19T06:30:23.260Z,90.81
2019-01-19T06:32:50.017Z,91.55
2019-01-19T06:35:16.772Z,91.85
2019-01-19T06:37:43.533Z,92.62
2019-01-19T06:40:11.268Z,92.28
2019-01-19T06:42:38.020Z,91.71
2019-01-19T06:45:08.241Z,92.28
2019-01-19T06:47:35.004Z,92.10
2019-01-19T06:50:01.777Z,91.79
2019-01-19T06:52:28.766Z,92.45
2019-01-19T06:54:55.509Z,92.57
2019-01-19T06:57:22.272Z,92.28
2019-01-19T06:59:49.016Z,92.45
2019-01-19T07:02:15.774Z,92.17
2019-01-19T07:04:42.525Z,92.74
2019-01-19T07:07:09.286Z,93.06
2019-01-19T07:09:36.020Z,92.59
2019-01-19T07:12:02.788Z,92.37
2019-01-19T07:14:29.553Z,92.08
2019-01-19T07:16:56.308Z,92.35
2019-01-19T07:19:23.049Z,91.82
2019-01-19T07:21:49.813Z,92.15
2019-01-19T07:24:16.536Z,92.27
2019-01-19T07:26:43.297Z,91.37
2019-01-19T07:29:10.033Z,92.17
2019-01-19T07:31:36.780Z,91.24
2019-01-19T07:34:04.557Z,91.83
2019-01-19T07:36:31.292Z,92.39
2019-01-19T07:38:58.020Z,92.55
2019-01-19T07:41:24.817Z,92.48
2019-01-19T07:43:51.556Z,92.18
2019-01-19T07:46:19.169Z,92.32
2019-01-19T07:48:45.152Z,92.28
2019-01-19T07:51:11.920Z,91.43
2019-01-19T07:53:38.687Z,92.30
2019-01-19T07:56:05.422Z,92.22
2019-01-19T07:58:32.197Z,92.67
2019-01-19T08:00:58.972Z,92.24
2019-01-19T08:03:25.720Z,91.48
2019-01-19T08:05:52.464Z,92.39
2019-01-19T08:08:19.216Z,91.54
2019-01-19T08:10:45.966Z,91.59
2019-01-19T08:13:12.729Z,91.59
2019-01-19T08:15:39.465Z,91.46
2019-01-19T08:18:06.232Z,91.69
2019-01-19T08:20:33.021Z,90.83
2019-01-19T08:22:59.738Z,91.67
2019-01-19T08:25:26.488Z,91.68
2019-01-19T08:27:53.240Z,91.10
2019-01-19T08:30:22.976Z,90.88
2019-01-19T08:32:50.112Z,90.94
2019-01-19T08:35:16.977Z,90.83
2019-01-19T08:37:43.771Z,91.31
2019-01-19T08:40:13.128Z,90.88
2019-01-19T08:42:39.902Z,90.37
2019-01-19T08:45:06.709Z,89.81
2019-01-19T08:47:33.464Z,88.36
2019-01-19T08:50:00.233Z,88.67
2019-01-19T08:52:26.961Z,88.46
2019-01-19T08:54:53.719Z,88.89
2019-01-19T08:57:20.468Z,88.08
2019-01-19T08:59:47.212Z,88.06
2019-01-19T09:02:13.985Z,87.30
2019-01-19T09:04:40.978Z,87.95
2019-01-19T09:07:07.708Z,87.69
2019-01-19T09:09:34.448Z,87.53
2019-01-19T09:12:01.189Z,87.65
2019-01-19T09:14:27.960Z,88.68
2019-01-19T09:16:54.705Z,87.49
2019-01-19T09:19:21.464Z,87.47
2019-01-19T09:21:49.713Z,87.58
2019-01-19T09:24:19.784Z,87.25
2019-01-19T09:26:46.541Z,87.12
2019-01-19T09:29:13.300Z,87.91
2019-01-19T09:31:40.036Z,87.08
2019-01-19T09:34:06.833Z,87.25
2019-01-19T09:36:33.572Z,86.39
2019-01-19T09:39:00.333Z,85.35
2019-01-19T09:41:27.068Z,84.81
2019-01-19T09:43:53.829Z,85.23
2019-01-19T09:46:20.600Z,83.98
2019-01-19T09:48:47.373Z,84.08
2019-01-19T09:51:14.116Z,83.28
2019-01-19T09:53:40.880Z,82.79
2019-01-19T09:56:07.612Z,82.86
2019-01-19T09:58:34.371Z,82.70
2019-01-19T10:01:01.124Z,83.51
2019-01-19T10:03:27.896Z,83.27
2019-01-19T10:05:54.651Z,82.77
2019-01-19T10:08:21.417Z,80.81
2019-01-19T10:10:48.252Z,81.31
2019-01-19T10:13:15.004Z,82.19
2019-01-19T10:15:41.782Z,81.40
2019-01-19T10:18:08.513Z,80.25
2019-01-19T10:20:35.268Z,79.60
2019-01-19T10:23:02.018Z,82.72
2019-01-19T10:25:28.764Z,80.11
2019-01-19T10:27:55.519Z,80.17
2019-01-19T10:30:23.804Z,79.66
2019-01-19T10:32:50.558Z,80.05
2019-01-19T10:35:17.368Z,78.08
2019-01-19T10:37:44.100Z,78.55
2019-01-19T10:40:11.488Z,80.16
2019-01-19T10:42:38.267Z,79.86
2019-01-19T10:45:06.814Z,79.18
2019-01-19T10:47:33.562Z,79.54
2019-01-19T10:50:00.353Z,80.68
2019-01-19T10:52:27.104Z,79.78
2019-01-19T10:54:53.855Z,79.49
2019-01-19T10:57:20.602Z,79.41
2019-01-19T10:59:47.364Z,80.74
2019-01-19T11:02:14.133Z,81.07
2019-01-19T11:04:40.899Z,80.01
2019-01-19T11:07:07.660Z,79.98
2019-01-19T11:09:34.442Z,80.20
2019-01-19T11:12:01.257Z,79.91
2019-01-19T11:14:28.012Z,79.40
2019-01-19T11:16:54.778Z,79.41
2019-01-19T11:19:21.565Z,79.54
2019-01-19T11:21:48.324Z,79.54
2019-01-19T11:24:15.129Z,78.81
2019-01-19T11:26:41.900Z,78.75
2019-01-19T11:29:08.664Z,80.33
2019-01-19T11:31:35.451Z,78.70
2019-01-19T11:34:02.966Z,78.69
2019-01-19T11:36:29.119Z,78.58
2019-01-19T11:38:55.877Z,78.21
2019-01-19T11:41:22.689Z,78.26
2019-01-19T11:43:49.433Z,77.52
2019-01-19T11:46:16.249Z,76.70
2019-01-19T11:48:43.020Z,76.42
2019-01-19T11:51:09.845Z,77.02
2019-01-19T11:53:36.602Z,76.97
2019-01-19T11:56:04.472Z,74.58
2019-01-19T11:58:31.193Z,73.60
2019-01-19T12:00:57.955Z,74.01
2019-01-19T12:03:24.705Z,74.79
2019-01-19T12:05:51.472Z,73.38
2019-01-19T12:08:19.659Z,72.83
2019-01-19T12:10:44.996Z,70.40
2019-01-19T12:13:11.756Z,71.31
2019-01-19T12:15:38.539Z,70.89
2019-01-19T12:18:05.293Z,71.10
2019-01-19T12:20:37.326Z,71.36
2019-01-19T12:23:04.132Z,71.42
2019-01-19T12:25:30.900Z,69.59
2019-01-19T12:27:57.663Z,69.55
2019-01-19T12:30:26.261Z,68.77
2019-01-19T12:32:53.017Z,69.96
2019-01-19T12:35:19.780Z,70.28
2019-01-19T12:37:46.562Z,69.74
2019-01-19T12:40:14.721Z,68.86
2019-01-19T12:42:42.265Z,68.62
2019-01-19T12:45:12.300Z,69.63
2019-01-19T12:47:39.119Z,69.82
2019-01-19T12:50:09.985Z,70.35
2019-01-19T12:52:36.810Z,71.57
2019-01-19T12:55:04.117Z,70.21
2019-01-19T12:57:30.877Z,71.44
2019-01-19T12:59:59.210Z,70.28
2019-01-19T13:02:24.456Z,69.80
2019-01-19T13:04:51.340Z,69.39
2019-01-19T13:07:18.099Z,68.16
2019-01-19T13:09:49.403Z,67.33
2019-01-19T13:12:26.126Z,68.27
2019-01-19T13:15:06.881Z,67.31
2019-01-19T13:17:52.172Z,66.37
2019-01-19T13:20:26.952Z,65.40
2019-01-19T13:23:37.744Z,66.36
2019-01-19T13:26:28.004Z,68.29
2019-01-19T13:29:19.844Z,70.61
2019-01-19T13:32:01.977Z,72.68
2019-01-19T13:34:51.029Z,71.02
2019-01-19T13:37:28.653Z,68.72
2019-01-19T13:40:22.566Z,68.96
2019-01-19T13:43:07.605Z,69.00
2019-01-19T13:45:47.444Z,68.93
2019-01-19T13:48:44.365Z,70.59
2019-01-19T13:51:39.988Z,72.07
2019-01-19T13:54:38.190Z,70.95
2019-01-19T13:57:18.216Z,71.74
2019-01-19T13:59:59.085Z,71.47
2019-01-19T14:03:02.796Z,71.49
2019-01-19T14:06:14.189Z,71.07
2019-01-19T14:09:06.272Z,72.27
2019-01-19T14:12:05.528Z,71.14
2019-01-19T14:15:00.272Z,70.95
2019-01-19T14:17:44.864Z,70.98
2019-01-19T14:20:35.064Z,71.99
2019-01-19T14:23:13.344Z,71.76
2019-01-19T14:25:48.792Z,71.83
2019-01-19T14:28:28.086Z,72.62
2019-01-19T14:31:20.266Z,73.18
2019-01-19T14:34:02.077Z,74.33
2019-01-19T14:37:00.260Z,73.76
2019-01-19T14:39:52.984Z,74.15
2019-01-19T14:43:01.932Z,73.52
2019-01-19T14:45:47.308Z,73.16
2019-01-19T14:48:44.588Z,70.46
2019-01-19T14:51:43.404Z,71.73
2019-01-19T14:54:26.453Z,71.19
2019-01-19T14:57:10.547Z,70.60
2019-01-19T15:00:14.161Z,70.86
2019-01-19T15:03:15.140Z,69.39
2019-01-19T15:06:08.392Z,69.47
2019-01-19T15:09:03.982Z,69.22
2019-01-19T15:11:49.948Z,70.55
2019-01-19T15:14:30.181Z,70.32
2019-01-19T15:17:15.492Z,69.71
2019-01-19T15:19:53.931Z,70.04
2019-01-19T15:22:35.736Z,71.01
2019-01-19T15:25:42.586Z,71.01
2019-01-19T15:28:39.760Z,70.84
2019-01-19T15:31:34.004Z,71.29
2019-01-19T15:34:26.488Z,69.76
2019-01-19T15:37:08.992Z,70.34
2019-01-19T15:40:02.721Z,69.45
2019-01-19T15:42:54.349Z,69.04
2019-01-19T15:45:47.916Z,70.66
2019-01-19T15:48:41.516Z,70.62
2019-01-19T15:51:39.817Z,72.82
2019-01-19T15:54:47.197Z,71.12
2019-01-19T15:57:25.063Z,71.12
2019-01-19T16:00:06.089Z,73.64
2019-01-19T16:03:02.272Z,73.69
2019-01-19T16:05:41.430Z,73.42
2019-01-19T16:08:32.572Z,76.63
2019-01-19T16:11:06.807Z,77.19
2019-01-19T16:14:01.016Z,75.93
2019-01-19T16:16:48.036Z,77.07
2019-01-19T16:19:29.416Z,76.20
2019-01-19T16:22:24.720Z,77.46
2019-01-19T16:25:06.745Z,78.84
2019-01-19T16:27:47.891Z,78.32
2019-01-19T16:30:34.910Z,78.61
2019-01-19T16:33:28.817Z,79.93
2019-01-19T16:36:23.745Z,79.23
2019-01-19T16:39:29.313Z,78.99
2019-01-19T16:42:04.332Z,78.11
2019-01-19T16:45:09.996Z,80.08
2019-01-19T16:48:11.617Z,79.39
2019-01-19T16:51:20.493Z,78.61
2019-01-19T16:53:58.663Z,79.77
2019-01-19T16:56:35.992Z,79.05
2019-01-19T16:59:24.773Z,78.28
2019-01-19T17:02:01.649Z,79.97
2019-01-19T17:05:14.716Z,79.81
2019-01-19T17:07:55.551Z,78.76
2019-01-19T17:10:31.396Z,79.43
2019-01-19T17:13:14.528Z,79.94
2019-01-19T17:15:51.816Z,79.32
2019-01-19T17:18:43.451Z,78.68
2019-01-19T17:21:24.073Z,80.40
2019-01-19T17:24:19.713Z,80.61
2019-01-19T17:27:01.922Z,80.37
2019-01-19T17:30:03.372Z,81.66
2019-01-19T17:32:41.244Z,81.92
2019-01-19T17:35:39.589Z,82.13
2019-01-19T17:38:14.892Z,83.18
2019-01-19T17:40:59.540Z,82.48
2019-01-19T17:43:37.463Z,83.09
2019-01-19T17:46:20.045Z,83.64
2019-01-19T17:49:11.736Z,83.45
2019-01-19T17:52:10.226Z,83.29
2019-01-19T17:55:07.328Z,83.83
2019-01-19T17:58:16.273Z,83.75
2019-01-19T18:01:04.737Z,83.35
2019-01-19T18:03:59.900Z,84.29
2019-01-19T18:06:41.733Z,83.89
2019-01-19T18:09:47.402Z,83.16
2019-01-19T18:12:21.777Z,84.51
2019-01-19T18:15:07.423Z,83.62
2019-01-19T18:17:49.347Z,83.62
2019-01-19T18:20:34.160Z,83.60
2019-01-19T18:23:21.037Z,83.03
2019-01-19T18:26:06.151Z,83.63
2019-01-19T18:28:47.342Z,83.66
2019-01-19T18:31:33.663Z,83.94
2019-01-19T18:34:23.824Z,84.87
2019-01-19T18:37:22.004Z,84.97
2019-01-19T18:39:57.792Z,85.36
2019-01-19T18:42:48.793Z,84.44
2019-01-19T18:45:28.970Z,84.18
2019-01-19T18:48:11.257Z,84.93
2019-01-19T18:50:57.881Z,85.34
2019-01-19T18:53:36.213Z,83.84
2019-01-19T18:56:16.716Z,84.83
2019-01-19T18:59:20.815Z,84.97
2019-01-19T19:02:12.620Z,84.69
2019-01-19T19:05:08.915Z,84.98
2019-01-19T19:08:06.376Z,85.66
2019-01-19T19:10:44.863Z,85.39
2019-01-19T19:13:24.608Z,85.85
2019-01-19T19:16:16.479Z,86.04
2019-01-19T19:18:55.744Z,85.39
2019-01-19T19:21:37.806Z,86.39
2019-01-19T19:24:35.068Z,86.27
2019-01-19T19:27:30.955Z,85.21
2019-01-19T19:30:11.596Z,85.70
2019-01-19T19:32:50.069Z,85.14
2019-01-19T19:35:28.852Z,85.31
2019-01-19T19:38:18.432Z,85.76
2019-01-19T19:41:03.992Z,85.54
2019-01-19T19:43:41.744Z,84.88
2019-01-19T19:46:36.595Z,85.63
2019-01-19T19:49:21.428Z,85.42
2019-01-19T19:51:55.307Z,85.40
2019-01-19T19:54:23.388Z,85.37
2019-01-19T19:56:50.273Z,85.53
2019-01-19T19:59:17.020Z,86.08
2019-01-19T20:01:43.776Z,86.72
2019-01-19T20:04:10.512Z,86.58
2019-01-19T20:06:37.277Z,85.90
2019-01-19T20:09:06.220Z,85.09
2019-01-19T20:11:32.983Z,85.83
2019-01-19T20:13:59.711Z,85.89
2019-01-19T20:16:26.492Z,85.24
2019-01-19T20:18:53.238Z,85.92
2019-01-19T20:21:19.996Z,85.14
2019-01-19T20:23:46.745Z,84.66
2019-01-19T20:26:13.480Z,85.37
2019-01-19T20:28:40.229Z,85.55
2019-01-19T20:31:07.044Z,84.67
2019-01-19T20:33:33.808Z,85.79
2019-01-19T20:36:00.557Z,85.76
2019-01-19T20:38:27.312Z,85.49
2019-01-19T20:40:54.053Z,85.76
2019-01-19T20:43:20.809Z,86.20
2019-01-19T20:45:47.907Z,85.32
2019-01-19T20:48:14.325Z,86.60
2019-01-19T20:50:41.069Z,86.14
2019-01-19T20:53:09.053Z,86.27
2019-01-19T20:55:34.584Z,86.17
2019-01-19T20:58:01.336Z,86.63
2019-01-19T21:00:28.068Z,85.73
2019-01-19T21:02:56.013Z,86.39
2019-01-19T21:05:22.736Z,86.68
2019-01-19T21:07:49.537Z,86.37
2019-01-19T21:10:16.256Z,86.66
2019-01-19T21:12:43.021Z,86.74
2019-01-19T21:15:10.707Z,86.89
2019-01-19T21:17:38.143Z,87.05
2019-01-19T21:20:06.620Z,86.80
2019-01-19T21:22:33.398Z,86.94
2019-01-19T21:25:00.254Z,86.52
2019-01-19T21:27:26.943Z,86.28
2019-01-19T21:29:54.528Z,86.15
2019-01-19T21:32:22.460Z,86.35
2019-01-19T21:34:49.200Z,86.21
2019-01-19T21:37:15.952Z,86.34
2019-01-19T21:39:42.681Z,86.58
2019-01-19T21:42:09.440Z,85.96
2019-01-19T21:44:36.181Z,85.32
2019-01-19T21:47:02.980Z,86.18
2019-01-19T21:49:29.765Z,85.58
2019-01-19T21:51:56.542Z,85.98
2019-01-19T21:54:23.319Z,86.05
2019-01-19T21:56:50.089Z,85.25
2019-01-19T21:59:16.885Z,86.15
2019-01-19T22:01:43.638Z,86.06
2019-01-19T22:04:10.442Z,85.24
2019-01-19T22:06:37.201Z,86.55
2019-01-19T22:09:06.277Z,86.38
2019-01-19T22:11:33.037Z,85.98
2019-01-19T22:13:59.823Z,87.15
2019-01-19T22:16:26.580Z,86.13
2019-01-19T22:18:53.369Z,86.33
2019-01-19T22:21:20.140Z,86.71
2019-01-19T22:23:47.081Z,86.51
2019-01-19T22:26:14.624Z,86.36
2019-01-19T22:28:41.413Z,86.80
2019-01-19T22:31:08.192Z,86.71
2019-01-19T22:33:34.967Z,86.21
2019-01-19T22:36:01.718Z,87.13
2019-01-19T22:38:28.496Z,86.64
2019-01-19T22:40:55.269Z,87.14
2019-01-19T22:43:28.396Z,87.72
2019-01-19T22:45:55.152Z,87.49
2019-01-19T22:48:21.930Z,87.24
2019-01-19T22:50:48.710Z,88.51
2019-01-19T22:53:18.606Z,88.83
2019-01-19T22:55:45.368Z,89.07
2019-01-19T22:58:12.204Z,90.11
2019-01-19T23:01:05.969Z,90.52
2019-01-19T23:03:34.922Z,89.98
2019-01-19T23:06:01.685Z,90.44
2019-01-19T23:08:28.464Z,90.12
2019-01-19T23:11:01.162Z,90.40
2019-01-19T23:13:22.068Z,91.25
2019-01-19T23:15:48.818Z,90.69
2019-01-19T23:18:15.600Z,90.58
2019-01-19T23:20:42.368Z,91.09
2019-01-19T23:23:09.132Z,90.59
2019-01-19T23:25:35.921Z,91.09
2019-01-19T23:28:02.677Z,91.31
2019-01-19T23:30:29.456Z,91.24
2019-01-19T23:32:56.226Z,91.38
2019-01-19T23:35:23.013Z,91.48
2019-01-19T23:37:49.774Z,91.02
2019-01-19T23:40:16.737Z,90.00
2019-01-19T23:42:47.337Z,89.91
2019-01-19T23:45:10.266Z,89.77
2019-01-19T23:47:37.041Z,89.49
2019-01-19T23:50:03.988Z,89.60
2019-01-19T23:52:30.769Z,89.01
2019-01-19T23:54:57.598Z,88.75
2019-01-19T23:57:24.357Z,88.28
2019-01-19T23:59:51.301Z,88.72
